EINN

Shannon Airport

Shannon, Ireland
METAR EINN 190300Z 28008KT 8000 VCSH FEW012 SCT018CB 02/01 Q1009 NOSIG
Observed Flight Rules
Jan-19 @ 03:00 UTC (40 minutes ago) Marginal Visual Flight Rules
Wind Visibility Clouds
280° at 8 knots 7,998 meters
  • Few at 1,200' AGL
  • Scattered at 1,800' AGL
Temperatures Readings
Current 2°C / 36°F
Dewpoint 1°C / 34°F
Humidity 93%
Altimeter 29.79" Hg
Pressure 1009 hPa
Elevation 20
METAR EINN 190300Z 28008KT 8000 VCSH FEW012 SCT018CB 02/01 Q1009 NOSIG
Observed Flight Rules
Jan-19 @ 03:00 UTC
(40 minutes ago)
MVFR
Wind Visibility
280° at 8 knots 7,998 meters
Clouds
  • Few at 1,200' AGL
  • Scattered at 1,800' AGL
Temperature Dewpoint
2°C / 36°F 1°C / 34°F
Humidity Altimeter Pressure
93% 29.79" Hg 1009 hPa